sensor_id;sensor_type;location;lat;lon;timestamp;pressure;altitude;pressure_sealevel;temperature;humidity
50484;BME280;36409;52.168;20.878;2023-02-04T00:14:19;99847.03;;;-2.00;81.26
50484;BME280;36409;52.168;20.878;2023-02-04T00:16:48;99858.09;;;-2.02;81.42
50484;BME280;36409;52.168;20.878;2023-02-04T00:19:17;99861.47;;;-2.03;81.59
50484;BME280;36409;52.168;20.878;2023-02-04T00:21:47;99875.14;;;-2.02;81.35
50484;BME280;36409;52.168;20.878;2023-02-04T00:24:16;99884.48;;;-2.03;81.35
50484;BME280;36409;52.168;20.878;2023-02-04T00:26:45;99887.90;;;-2.04;81.19
50484;BME280;36409;52.168;20.878;2023-02-04T00:29:14;99888.72;;;-2.05;80.85
50484;BME280;36409;52.168;20.878;2023-02-04T00:31:43;99896.30;;;-2.08;81.02
50484;BME280;36409;52.168;20.878;2023-02-04T00:34:12;99909.91;;;-2.09;81.72
50484;BME280;36409;52.168;20.878;2023-02-04T00:36:42;99908.16;;;-2.10;81.27
50484;BME280;36409;52.168;20.878;2023-02-04T00:39:11;99916.75;;;-2.08;81.58
50484;BME280;36409;52.168;20.878;2023-02-04T00:41:41;99926.10;;;-2.08;81.05
50484;BME280;36409;52.168;20.878;2023-02-04T00:44:10;99932.92;;;-2.09;81.15
50484;BME280;36409;52.168;20.878;2023-02-04T00:46:41;99941.42;;;-2.10;81.43
50484;BME280;36409;52.168;20.878;2023-02-04T00:49:10;99945.68;;;-2.10;81.46
50484;BME280;36409;52.168;20.878;2023-02-04T00:51:40;99956.73;;;-2.11;81.93
50484;BME280;36409;52.168;20.878;2023-02-04T00:54:14;99970.34;;;-2.12;81.21
50484;BME280;36409;52.168;20.878;2023-02-04T00:56:44;99969.41;;;-2.14;81.54
50484;BME280;36409;52.168;20.878;2023-02-04T00:59:13;99991.58;;;-2.15;81.38
50484;BME280;36409;52.168;20.878;2023-02-04T01:01:43;99995.80;;;-2.15;81.35
50484;BME280;36409;52.168;20.878;2023-02-04T01:04:12;99995.80;;;-2.15;81.94
50484;BME280;36409;52.168;20.878;2023-02-04T01:06:42;100004.30;;;-2.17;81.32
50484;BME280;36409;52.168;20.878;2023-02-04T01:09:12;100008.56;;;-2.17;81.74
50484;BME280;36409;52.168;20.878;2023-02-04T01:11:42;100032.50;;;-2.15;82.14
50484;BME280;36409;52.168;20.878;2023-02-04T01:14:11;100038.44;;;-2.16;81.63
50484;BME280;36409;52.168;20.878;2023-02-04T01:16:41;100039.25;;;-2.17;82.25
50484;BME280;36409;52.168;20.878;2023-02-04T01:19:10;100046.11;;;-2.16;82.11
50484;BME280;36409;52.168;20.878;2023-02-04T01:21:40;100050.33;;;-2.17;81.62
50484;BME280;36409;52.168;20.878;2023-02-04T01:24:12;100063.13;;;-2.17;81.64
50484;BME280;36409;52.168;20.878;2023-02-04T01:27:00;100072.50;;;-2.17;81.87
50484;BME280;36409;52.168;20.878;2023-02-04T01:29:30;100075.05;;;-2.17;81.79
50484;BME280;36409;52.168;20.878;2023-02-04T01:31:59;100082.73;;;-2.17;81.64
50484;BME280;36409;52.168;20.878;2023-02-04T01:34:28;100097.27;;;-2.16;81.63
50484;BME280;36409;52.168;20.878;2023-02-04T01:36:58;100099.81;;;-2.16;81.81
50484;BME280;36409;52.168;20.878;2023-02-04T01:39:27;100120.28;;;-2.16;82.41
50484;BME280;36409;52.168;20.878;2023-02-04T01:41:58;100124.58;;;-2.15;82.31
50484;BME280;36409;52.168;20.878;2023-02-04T01:44:30;100135.66;;;-2.14;82.29
50484;BME280;36409;52.168;20.878;2023-02-04T01:47:00;100150.20;;;-2.13;82.17
50484;BME280;36409;52.168;20.878;2023-02-04T01:49:32;100159.61;;;-2.12;82.19
50484;BME280;36409;52.168;20.878;2023-02-04T01:52:02;100164.73;;;-2.12;81.78
50484;BME280;36409;52.168;20.878;2023-02-04T01:54:32;100179.19;;;-2.13;81.75
50484;BME280;36409;52.168;20.878;2023-02-04T01:57:05;100186.05;;;-2.12;81.69
50484;BME280;36409;52.168;20.878;2023-02-04T01:59:34;100197.17;;;-2.11;81.94
50484;BME280;36409;52.168;20.878;2023-02-04T02:05:11;100205.70;;;-2.11;82.14
50484;BME280;36409;52.168;20.878;2023-02-04T02:07:42;100221.05;;;-2.11;81.75
50484;BME280;36409;52.168;20.878;2023-02-04T02:10:12;100219.30;;;-2.12;82.43
50484;BME280;36409;52.168;20.878;2023-02-04T02:12:42;100237.20;;;-2.12;82.05
50484;BME280;36409;52.168;20.878;2023-02-04T02:15:13;100237.20;;;-2.12;82.16
50484;BME280;36409;52.168;20.878;2023-02-04T02:17:43;100253.44;;;-2.11;82.11
50484;BME280;36409;52.168;20.878;2023-02-04T02:20:15;100267.86;;;-2.13;81.82
50484;BME280;36409;52.168;20.878;2023-02-04T02:22:56;100279.02;;;-2.11;81.91
50484;BME280;36409;52.168;20.878;2023-02-04T02:25:27;100289.25;;;-2.11;81.67
50484;BME280;36409;52.168;20.878;2023-02-04T02:27:58;100307.97;;;-2.12;82.59
50484;BME280;36409;52.168;20.878;2023-02-04T02:30:29;100301.16;;;-2.12;82.14
50484;BME280;36409;52.168;20.878;2023-02-04T02:32:59;100312.20;;;-2.13;82.38
50484;BME280;36409;52.168;20.878;2023-02-04T02:35:31;100323.32;;;-2.12;82.25
50484;BME280;36409;52.168;20.878;2023-02-04T02:38:01;100337.78;;;-2.13;82.20
50484;BME280;36409;52.168;20.878;2023-02-04T02:40:32;100336.97;;;-2.12;82.18
50484;BME280;36409;52.168;20.878;2023-02-04T02:43:03;100360.88;;;-2.11;81.80
50484;BME280;36409;52.168;20.878;2023-02-04T02:45:33;100368.47;;;-2.13;82.54
50484;BME280;36409;52.168;20.878;2023-02-04T02:48:03;100382.20;;;-2.11;82.39
50484;BME280;36409;52.168;20.878;2023-02-04T02:50:32;100377.89;;;-2.12;82.35
50484;BME280;36409;52.168;20.878;2023-02-04T02:53:02;100386.37;;;-2.13;81.80
50484;BME280;36409;52.168;20.878;2023-02-04T02:55:32;100402.57;;;-2.14;82.67
50484;BME280;36409;52.168;20.878;2023-02-04T02:58:04;100414.52;;;-2.13;82.49
50484;BME280;36409;52.168;20.878;2023-02-04T03:00:37;100423.89;;;-2.13;81.86
50484;BME280;36409;52.168;20.878;2023-02-04T03:03:11;100427.27;;;-2.14;82.11
50484;BME280;36409;52.168;20.878;2023-02-04T03:05:43;100434.13;;;-2.13;82.58
50484;BME280;36409;52.168;20.878;2023-02-04T03:08:15;100452.08;;;-2.12;81.96
50484;BME280;36409;52.168;20.878;2023-02-04T03:10:45;100449.52;;;-2.12;81.93
50484;BME280;36409;52.168;20.878;2023-02-04T03:13:15;100459.75;;;-2.12;81.97
50484;BME280;36409;52.168;20.878;2023-02-04T03:15:46;100474.29;;;-2.11;82.43
50484;BME280;36409;52.168;20.878;2023-02-04T03:18:17;100486.27;;;-2.10;82.32
50484;BME280;36409;52.168;20.878;2023-02-04T03:20:47;100480.30;;;-2.10;81.86
50484;BME280;36409;52.168;20.878;2023-02-04T03:23:19;100486.27;;;-2.10;81.90
50484;BME280;36409;52.168;20.878;2023-02-04T03:25:49;100503.38;;;-2.09;81.89
50484;BME280;36409;52.168;20.878;2023-02-04T03:28:18;100503.32;;;-2.10;81.91
50484;BME280;36409;52.168;20.878;2023-02-04T03:30:47;100524.64;;;-2.10;82.29
50484;BME280;36409;52.168;20.878;2023-02-04T03:33:24;100536.58;;;-2.10;81.93
50484;BME280;36409;52.168;20.878;2023-02-04T03:35:57;100546.81;;;-2.10;81.79
50484;BME280;36409;52.168;20.878;2023-02-04T03:38:27;100557.05;;;-2.10;82.18
50484;BME280;36409;52.168;20.878;2023-02-04T03:40:57;100574.14;;;-2.09;81.65
50484;BME280;36409;52.168;20.878;2023-02-04T03:43:27;100583.48;;;-2.10;82.21
50484;BME280;36409;52.168;20.878;2023-02-04T03:46:02;100594.61;;;-2.09;81.96
50484;BME280;36409;52.168;20.878;2023-02-04T03:48:31;100603.14;;;-2.09;82.60
50484;BME280;36409;52.168;20.878;2023-02-04T03:51:00;100603.90;;;-2.11;82.42
50484;BME280;36409;52.168;20.878;2023-02-04T03:53:33;100613.24;;;-2.12;82.39
50484;BME280;36409;52.168;20.878;2023-02-04T03:56:02;100618.36;;;-2.12;82.30
50484;BME280;36409;52.168;20.878;2023-02-04T03:58:31;100625.12;;;-2.14;82.38
50484;BME280;36409;52.168;20.878;2023-02-04T04:01:01;100634.32;;;-2.18;81.91
50484;BME280;36409;52.168;20.878;2023-02-04T04:03:31;100638.44;;;-2.21;82.26
50484;BME280;36409;52.168;20.878;2023-02-04T04:06:00;100656.16;;;-2.26;81.42
50484;BME280;36409;52.168;20.878;2023-02-04T04:08:31;100671.31;;;-2.30;82.26
50484;BME280;36409;52.168;20.878;2023-02-04T04:11:01;100670.22;;;-2.36;81.39
50484;BME280;36409;52.168;20.878;2023-02-04T04:13:31;100680.34;;;-2.39;81.82
50484;BME280;36409;52.168;20.878;2023-02-04T04:16:00;100688.67;;;-2.43;81.83
50484;BME280;36409;52.168;20.878;2023-02-04T04:18:32;100690.23;;;-2.46;82.17
50484;BME280;36409;52.168;20.878;2023-02-04T04:21:02;100700.31;;;-2.50;81.89
50484;BME280;36409;52.168;20.878;2023-02-04T04:23:31;100710.39;;;-2.53;82.14
50484;BME280;36409;52.168;20.878;2023-02-04T04:26:02;100714.59;;;-2.55;81.41
50484;BME280;36409;52.168;20.878;2023-02-04T04:28:31;100726.28;;;-2.60;81.56
50484;BME280;36409;52.168;20.878;2023-02-04T04:31:00;100731.33;;;-2.61;81.82
50484;BME280;36409;52.168;20.878;2023-02-04T04:33:31;100746.52;;;-2.65;82.13
50484;BME280;36409;52.168;20.878;2023-02-04T04:36:00;100757.48;;;-2.67;82.03
50484;BME280;36409;52.168;20.878;2023-02-04T04:38:30;100761.59;;;-2.71;81.67
50484;BME280;36409;52.168;20.878;2023-02-04T04:40:59;100782.75;;;-2.73;81.85
50484;BME280;36409;52.168;20.878;2023-02-04T04:43:30;100793.77;;;-2.74;81.59
50484;BME280;36409;52.168;20.878;2023-02-04T04:46:00;100797.22;;;-2.74;82.11
50484;BME280;36409;52.168;20.878;2023-02-04T04:48:31;100798.98;;;-2.73;81.77
50484;BME280;36409;52.168;20.878;2023-02-04T04:51:00;100808.31;;;-2.73;81.73
50484;BME280;36409;52.168;20.878;2023-02-04T04:53:30;100810.00;;;-2.74;82.04
50484;BME280;36409;52.168;20.878;2023-02-04T04:55:59;100811.66;;;-2.74;81.49
50484;BME280;36409;52.168;20.878;2023-02-04T04:58:31;100822.78;;;-2.74;82.13
50484;BME280;36409;52.168;20.878;2023-02-04T05:01:00;100831.31;;;-2.73;82.07
50484;BME280;36409;52.168;20.878;2023-02-04T05:03:31;100837.31;;;-2.73;81.83
50484;BME280;36409;52.168;20.878;2023-02-04T05:06:00;100847.66;;;-2.70;82.11
50484;BME280;36409;52.168;20.878;2023-02-04T05:08:30;100854.63;;;-2.67;81.67
50484;BME280;36409;52.168;20.878;2023-02-04T05:11:01;100862.41;;;-2.64;81.81
50484;BME280;36409;52.168;20.878;2023-02-04T05:13:31;100868.48;;;-2.62;82.14
50484;BME280;36409;52.168;20.878;2023-02-04T05:15:59;100876.30;;;-2.59;81.71
50484;BME280;36409;52.168;20.878;2023-02-04T05:18:31;100888.34;;;-2.56;81.87
50484;BME280;36409;52.168;20.878;2023-02-04T05:21:00;100891.85;;;-2.54;82.01
50484;BME280;36409;52.168;20.878;2023-02-04T05:23:32;100903.84;;;-2.53;82.38
50484;BME280;36409;52.168;20.878;2023-02-04T05:26:02;100904.79;;;-2.51;81.90
50484;BME280;36409;52.168;20.878;2023-02-04T05:28:31;100914.22;;;-2.50;82.06
50484;BME280;36409;52.168;20.878;2023-02-04T05:31:00;100924.56;;;-2.47;82.17
50484;BME280;36409;52.168;20.878;2023-02-04T05:33:31;100920.41;;;-2.45;82.12
50484;BME280;36409;52.168;20.878;2023-02-04T05:36:00;100928.08;;;-2.45;82.43
50484;BME280;36409;52.168;20.878;2023-02-04T05:38:32;100930.73;;;-2.43;81.74
50484;BME280;36409;52.168;20.878;2023-02-04T05:41:01;100941.02;;;-2.42;82.40
50484;BME280;36409;52.168;20.878;2023-02-04T05:43:31;100952.95;;;-2.42;81.92
50484;BME280;36409;52.168;20.878;2023-02-04T05:46:01;100972.66;;;-2.40;82.01
50484;BME280;36409;52.168;20.878;2023-02-04T05:48:31;100973.53;;;-2.39;82.57
50484;BME280;36409;52.168;20.878;2023-02-04T05:51:00;100973.63;;;-2.38;82.36
50484;BME280;36409;52.168;20.878;2023-02-04T05:53:31;100991.58;;;-2.36;81.68
50484;BME280;36409;52.168;20.878;2023-02-04T05:56:00;101003.41;;;-2.38;82.46
50484;BME280;36409;52.168;20.878;2023-02-04T05:58:32;101011.18;;;-2.37;82.40
50484;BME280;36409;52.168;20.878;2023-02-04T06:01:02;101022.21;;;-2.38;82.02
50484;BME280;36409;52.168;20.878;2023-02-04T06:03:32;101032.34;;;-2.39;82.14
50484;BME280;36409;52.168;20.878;2023-02-04T06:06:01;101042.52;;;-2.41;81.84
50484;BME280;36409;52.168;20.878;2023-02-04T06:08:30;101051.84;;;-2.41;81.85
50484;BME280;36409;52.168;20.878;2023-02-04T06:10:59;101059.45;;;-2.43;82.04
50484;BME280;36409;52.168;20.878;2023-02-04T06:13:31;101069.61;;;-2.44;82.20
50484;BME280;36409;52.168;20.878;2023-02-04T06:16:00;101079.84;;;-2.44;82.28
50484;BME280;36409;52.168;20.878;2023-02-04T06:18:31;101087.42;;;-2.46;81.78
50484;BME280;36409;52.168;20.878;2023-02-04T06:21:00;101095.89;;;-2.47;82.00
50484;BME280;36409;52.168;20.878;2023-02-04T06:23:31;101100.07;;;-2.49;81.47
50484;BME280;36409;52.168;20.878;2023-02-04T06:26:01;101101.66;;;-2.51;81.45
50484;BME280;36409;52.168;20.878;2023-02-04T06:28:31;101113.42;;;-2.55;81.93
50484;BME280;36409;52.168;20.878;2023-02-04T06:31:00;101121.79;;;-2.57;81.34
50484;BME280;36409;52.168;20.878;2023-02-04T06:33:30;101135.30;;;-2.60;81.35
50484;BME280;36409;52.168;20.878;2023-02-04T06:35:59;101137.69;;;-2.63;81.27
50484;BME280;36409;52.168;20.878;2023-02-04T06:38:30;101141.87;;;-2.65;81.38
50484;BME280;36409;52.168;20.878;2023-02-04T06:41:00;101141.70;;;-2.68;81.27
50484;BME280;36409;52.168;20.878;2023-02-04T06:43:30;101152.56;;;-2.72;81.39
50484;BME280;36409;52.168;20.878;2023-02-04T06:45:59;101157.43;;;-2.77;81.08
50484;BME280;36409;52.168;20.878;2023-02-04T06:48:30;101167.48;;;-2.80;81.19
50484;BME280;36409;52.168;20.878;2023-02-04T06:50:59;101181.78;;;-2.84;81.04
50484;BME280;36409;52.168;20.878;2023-02-04T06:53:29;101178.12;;;-2.89;81.10
50484;BME280;36409;52.168;20.878;2023-02-04T06:56:00;101194.07;;;-2.93;81.12
50484;BME280;36409;52.168;20.878;2023-02-04T06:58:30;101204.05;;;-2.98;81.09
50484;BME280;36409;52.168;20.878;2023-02-04T07:00:59;101217.55;;;-3.00;81.09
50484;BME280;36409;52.168;20.878;2023-02-04T07:03:31;101218.23;;;-3.03;81.07
50484;BME280;36409;52.168;20.878;2023-02-04T07:06:00;101233.56;;;-3.03;80.63
50484;BME280;36409;52.168;20.878;2023-02-04T07:08:32;101231.01;;;-3.03;80.83
50484;BME280;36409;52.168;20.878;2023-02-04T07:11:01;101231.73;;;-3.05;80.77
50484;BME280;36409;52.168;20.878;2023-02-04T07:13:31;101247.84;;;-3.06;80.59
50484;BME280;36409;52.168;20.878;2023-02-04T07:16:01;101248.75;;;-3.06;80.30
50484;BME280;36409;52.168;20.878;2023-02-04T07:18:31;101259.76;;;-3.07;80.81
50484;BME280;36409;52.168;20.878;2023-02-04T07:21:01;101268.11;;;-3.10;80.65
50484;BME280;36409;52.168;20.878;2023-02-04T07:23:33;101263.72;;;-3.12;80.37
50484;BME280;36409;52.168;20.878;2023-02-04T07:26:05;101278.86;;;-3.15;80.81
50484;BME280;36409;52.168;20.878;2023-02-04T07:28:37;101285.59;;;-3.17;80.69
50484;BME280;36409;52.168;20.878;2023-02-04T07:31:08;101294.19;;;-3.15;80.69
50484;BME280;36409;52.168;20.878;2023-02-04T07:33:38;101297.56;;;-3.16;80.72
50484;BME280;36409;52.168;20.878;2023-02-04T07:36:07;101299.22;;;-3.17;80.69
50484;BME280;36409;52.168;20.878;2023-02-04T07:38:36;101307.78;;;-3.16;80.68
50484;BME280;36409;52.168;20.878;2023-02-04T07:41:06;101309.44;;;-3.17;80.92
50484;BME280;36409;52.168;20.878;2023-02-04T07:43:35;101312.07;;;-3.15;80.49
50484;BME280;36409;52.168;20.878;2023-02-04T07:46:04;101317.17;;;-3.15;80.54
50484;BME280;36409;52.168;20.878;2023-02-04T07:48:34;101314.63;;;-3.15;80.70
50484;BME280;36409;52.168;20.878;2023-02-04T07:51:04;101324.84;;;-3.15;80.66
50484;BME280;36409;52.168;20.878;2023-02-04T07:53:34;101328.30;;;-3.15;80.46
50484;BME280;36409;52.168;20.878;2023-02-04T07:56:04;101334.38;;;-3.13;80.53
50484;BME280;36409;52.168;20.878;2023-02-04T07:58:36;101341.25;;;-3.12;80.54
50484;BME280;36409;52.168;20.878;2023-02-04T08:01:08;101347.22;;;-3.11;80.52
50484;BME280;36409;52.168;20.878;2023-02-04T08:03:38;101349.78;;;-3.11;80.54
50484;BME280;36409;52.168;20.878;2023-02-04T08:06:10;101356.73;;;-3.08;80.34
50484;BME280;36409;52.168;20.878;2023-02-04T08:08:39;101358.49;;;-3.07;80.40
50484;BME280;36409;52.168;20.878;2023-02-04T08:11:09;101367.05;;;-3.07;80.28
50484;BME280;36409;52.168;20.878;2023-02-04T08:13:38;101367.20;;;-3.04;80.23
50484;BME280;36409;52.168;20.878;2023-02-04T08:16:07;101369.08;;;-3.01;80.05
50484;BME280;36409;52.168;20.878;2023-02-04T08:18:40;101364.83;;;-3.01;80.22
50484;BME280;36409;52.168;20.878;2023-02-04T08:21:09;101382.00;;;-2.98;79.94
50484;BME280;36409;52.168;20.878;2023-02-04T08:23:39;101379.63;;;-2.95;80.23
50484;BME280;36409;52.168;20.878;2023-02-04T08:26:10;101380.61;;;-2.93;80.16
50484;BME280;36409;52.168;20.878;2023-02-04T08:28:39;101393.57;;;-2.90;80.26
50484;BME280;36409;52.168;20.878;2023-02-04T08:31:09;101401.39;;;-2.87;80.02
50484;BME280;36409;52.168;20.878;2023-02-04T08:33:40;101389.48;;;-2.71;79.71
50484;BME280;36409;52.168;20.878;2023-02-04T08:36:10;101399.45;;;-2.29;79.26
50484;BME280;36409;52.168;20.878;2023-02-04T08:38:39;101407.44;;;-1.59;78.39
50484;BME280;36409;52.168;20.878;2023-02-04T08:41:13;101403.70;;;-0.80;77.67
50484;BME280;36409;52.168;20.878;2023-02-04T08:43:42;101415.20;;;0.81;75.82
50484;BME280;36409;52.168;20.878;2023-02-04T08:46:12;101406.78;;;0.25;77.03
50484;BME280;36409;52.168;20.878;2023-02-04T08:48:42;101420.19;;;-0.38;77.51
50484;BME280;36409;52.168;20.878;2023-02-04T08:51:12;101423.61;;;-0.92;77.33
50484;BME280;36409;52.168;20.878;2023-02-04T08:53:41;101427.91;;;-1.26;77.56
50484;BME280;36409;52.168;20.878;2023-02-04T08:56:10;101428.00;;;-1.41;78.37
50484;BME280;36409;52.168;20.878;2023-02-04T08:58:44;101412.25;;;0.72;74.53
50484;BME280;36409;52.168;20.878;2023-02-04T09:01:15;101411.13;;;3.18;71.05
50484;BME280;36409;52.168;20.878;2023-02-04T09:03:44;101409.92;;;4.52;70.01
50484;BME280;36409;52.168;20.878;2023-02-04T09:06:13;101426.20;;;4.47;71.07
50484;BME280;36409;52.168;20.878;2023-02-04T09:08:43;101430.61;;;3.91;71.65
50484;BME280;36409;52.168;20.878;2023-02-04T09:11:12;101434.20;;;3.14;71.81
50484;BME280;36409;52.168;20.878;2023-02-04T09:13:42;101442.12;;;1.97;72.76
50484;BME280;36409;52.168;20.878;2023-02-04T09:16:11;101449.95;;;2.00;72.05
50484;BME280;36409;52.168;20.878;2023-02-04T09:18:41;101446.47;;;1.33;72.91
50484;BME280;36409;52.168;20.878;2023-02-04T09:21:11;101444.91;;;0.74;74.60
50484;BME280;36409;52.168;20.878;2023-02-04T09:23:40;101437.34;;;0.38;74.64
50484;BME280;36409;52.168;20.878;2023-02-04T09:26:09;101438.74;;;0.12;74.36
50484;BME280;36409;52.168;20.878;2023-02-04T09:28:39;101449.84;;;-0.07;75.32
50484;BME280;36409;52.168;20.878;2023-02-04T09:31:08;101448.09;;;-0.26;75.18
50484;BME280;36409;52.168;20.878;2023-02-04T09:33:39;101448.34;;;-0.40;75.58
50484;BME280;36409;52.168;20.878;2023-02-04T09:36:09;101458.72;;;-0.55;75.86
50484;BME280;36409;52.168;20.878;2023-02-04T09:38:38;101465.69;;;-0.70;75.82
50484;BME280;36409;52.168;20.878;2023-02-04T09:41:09;101473.57;;;-0.84;75.21
50484;BME280;36409;52.168;20.878;2023-02-04T09:43:41;101491.29;;;-0.88;75.89
50484;BME280;36409;52.168;20.878;2023-02-04T09:46:19;101491.86;;;-0.94;76.24
50484;BME280;36409;52.168;20.878;2023-02-04T09:48:49;101486.34;;;-1.02;75.29
50484;BME280;36409;52.168;20.878;2023-02-04T09:51:22;101491.30;;;-1.05;76.03
50484;BME280;36409;52.168;20.878;2023-02-04T09:53:57;101492.55;;;-0.45;74.73
50484;BME280;36409;52.168;20.878;2023-02-04T09:56:31;101492.62;;;-0.26;73.84
50484;BME280;36409;52.168;20.878;2023-02-04T09:59:05;101496.80;;;-0.28;73.92
50484;BME280;36409;52.168;20.878;2023-02-04T10:01:35;101492.91;;;-0.20;73.75
50484;BME280;36409;52.168;20.878;2023-02-04T10:04:04;101495.59;;;0.20;73.43
50484;BME280;36409;52.168;20.878;2023-02-04T10:06:36;101503.63;;;2.57;69.56
50484;BME280;36409;52.168;20.878;2023-02-04T10:09:07;101491.13;;;4.58;66.33
50484;BME280;36409;52.168;20.878;2023-02-04T10:11:38;101502.98;;;5.48;65.18
50484;BME280;36409;52.168;20.878;2023-02-04T10:14:13;101493.45;;;6.61;63.21
50484;BME280;36409;52.168;20.878;2023-02-04T10:16:50;101498.16;;;7.29;61.66
50484;BME280;36409;52.168;20.878;2023-02-04T10:19:21;101494.37;;;7.62;61.49
50484;BME280;36409;52.168;20.878;2023-02-04T10:21:51;101498.98;;;7.80;60.99
50484;BME280;36409;52.168;20.878;2023-02-04T10:24:22;101496.83;;;8.11;59.90
50484;BME280;36409;52.168;20.878;2023-02-04T10:27:04;101500.67;;;8.39;59.34
50484;BME280;36409;52.168;20.878;2023-02-04T10:29:37;101498.76;;;8.26;59.08
50484;BME280;36409;52.168;20.878;2023-02-04T10:32:28;101501.70;;;8.49;59.25
50484;BME280;36409;52.168;20.878;2023-02-04T10:35:00;101514.72;;;6.45;61.98
50484;BME280;36409;52.168;20.878;2023-02-04T10:37:32;101517.11;;;7.23;60.16
50484;BME280;36409;52.168;20.878;2023-02-04T10:40:01;101519.34;;;6.60;60.74
50484;BME280;36409;52.168;20.878;2023-02-04T10:42:33;101527.11;;;6.58;61.08
50484;BME280;36409;52.168;20.878;2023-02-04T10:45:02;101526.82;;;6.05;61.84
50484;BME280;36409;52.168;20.878;2023-02-04T10:47:32;101537.66;;;6.66;60.30
50484;BME280;36409;52.168;20.878;2023-02-04T10:50:06;101532.70;;;5.99;61.33
50484;BME280;36409;52.168;20.878;2023-02-04T10:52:44;101534.55;;;6.43;61.08
50484;BME280;36409;52.168;20.878;2023-02-04T10:55:18;101542.63;;;4.51;63.74
50484;BME280;36409;52.168;20.878;2023-02-04T10:57:48;101555.55;;;3.15;65.10
50484;BME280;36409;52.168;20.878;2023-02-04T11:00:20;101556.34;;;2.20;66.48
50484;BME280;36409;52.168;20.878;2023-02-04T11:02:55;101548.52;;;1.53;66.56
50484;BME280;36409;52.168;20.878;2023-02-04T11:05:31;101558.91;;;0.95;67.89
50484;BME280;36409;52.168;20.878;2023-02-04T11:08:01;101552.05;;;0.56;68.43
50484;BME280;36409;52.168;20.878;2023-02-04T11:10:32;101552.67;;;0.32;69.24
50484;BME280;36409;52.168;20.878;2023-02-04T11:13:04;101545.75;;;0.49;69.83
50484;BME280;36409;52.168;20.878;2023-02-04T11:15:39;101546.55;;;0.48;69.41
50484;BME280;36409;52.168;20.878;2023-02-04T11:18:10;101553.09;;;0.41;69.35
50484;BME280;36409;52.168;20.878;2023-02-04T11:20:39;101542.09;;;0.26;69.47
50484;BME280;36409;52.168;20.878;2023-02-04T11:23:32;101547.75;;;0.37;70.53
50484;BME280;36409;52.168;20.878;2023-02-04T11:26:04;101549.00;;;0.27;69.13
50484;BME280;36409;52.168;20.878;2023-02-04T11:28:50;101554.95;;;0.08;70.34
50484;BME280;36409;52.168;20.878;2023-02-04T11:31:38;101549.59;;;0.03;70.37
50484;BME280;36409;52.168;20.878;2023-02-04T11:34:23;101553.27;;;0.08;70.45
50484;BME280;36409;52.168;20.878;2023-02-04T11:37:05;101555.97;;;0.11;70.37
50484;BME280;36409;52.168;20.878;2023-02-04T11:39:44;101564.04;;;0.01;70.49
50484;BME280;36409;52.168;20.878;2023-02-04T11:42:20;101567.44;;;0.00;70.44
50484;BME280;36409;52.168;20.878;2023-02-04T11:44:55;101573.16;;;-0.06;70.14
50484;BME280;36409;52.168;20.878;2023-02-04T11:47:34;101570.22;;;-0.13;70.14
50484;BME280;36409;52.168;20.878;2023-02-04T11:50:10;101561.12;;;-0.07;70.71
50484;BME280;36409;52.168;20.878;2023-02-04T11:52:42;101565.80;;;0.02;70.50
50484;BME280;36409;52.168;20.878;2023-02-04T11:55:11;101566.17;;;-0.08;70.32
50484;BME280;36409;52.168;20.878;2023-02-04T11:57:42;101575.93;;;-0.19;69.65
50484;BME280;36409;52.168;20.878;2023-02-04T12:00:17;101575.80;;;-0.39;70.24
50484;BME280;36409;52.168;20.878;2023-02-04T12:02:48;101574.16;;;-0.55;70.01
50484;BME280;36409;52.168;20.878;2023-02-04T12:05:19;101571.92;;;-0.49;70.43
50484;BME280;36409;52.168;20.878;2023-02-04T12:07:48;101573.17;;;-0.40;70.35
50484;BME280;36409;52.168;20.878;2023-02-04T12:10:25;101575.67;;;-0.42;70.20
50484;BME280;36409;52.168;20.878;2023-02-04T12:12:55;101572.44;;;-0.38;70.94
50484;BME280;36409;52.168;20.878;2023-02-04T12:15:32;101580.06;;;-0.39;71.11
50484;BME280;36409;52.168;20.878;2023-02-04T12:18:05;101583.84;;;-0.49;70.12
50484;BME280;36409;52.168;20.878;2023-02-04T12:20:35;101581.85;;;-0.55;70.33
50484;BME280;36409;52.168;20.878;2023-02-04T12:23:05;101572.09;;;-0.62;70.35
50484;BME280;36409;52.168;20.878;2023-02-04T12:25:34;101581.63;;;-0.59;70.28
50484;BME280;36409;52.168;20.878;2023-02-04T12:28:05;101584.12;;;-0.61;70.35
50484;BME280;36409;52.168;20.878;2023-02-04T12:30:34;101591.58;;;-0.66;70.52
50484;BME280;36409;52.168;20.878;2023-02-04T12:33:03;101602.24;;;-0.74;71.50
50484;BME280;36409;52.168;20.878;2023-02-04T12:35:32;101596.95;;;-0.78;70.91
50484;BME280;36409;52.168;20.878;2023-02-04T12:38:02;101597.27;;;-0.88;70.94
50484;BME280;36409;52.168;20.878;2023-02-04T12:40:32;101603.86;;;-0.93;71.25
50484;BME280;36409;52.168;20.878;2023-02-04T12:43:01;101605.22;;;-1.00;71.12
50484;BME280;36409;52.168;20.878;2023-02-04T12:45:32;101614.26;;;-1.06;71.98
50484;BME280;36409;52.168;20.878;2023-02-04T12:48:02;101607.37;;;-1.07;71.58
50484;BME280;36409;52.168;20.878;2023-02-04T12:50:31;101601.20;;;-1.11;71.00
50484;BME280;36409;52.168;20.878;2023-02-04T12:53:01;101608.72;;;-1.14;71.12
50484;BME280;36409;52.168;20.878;2023-02-04T12:55:31;101602.55;;;-1.18;72.27
50484;BME280;36409;52.168;20.878;2023-02-04T12:58:01;101599.67;;;-1.07;72.06
50484;BME280;36409;52.168;20.878;2023-02-04T13:00:31;101601.62;;;-1.03;71.23
50484;BME280;36409;52.168;20.878;2023-02-04T13:03:00;101609.37;;;-1.02;72.25
50484;BME280;36409;52.168;20.878;2023-02-04T13:05:30;101616.09;;;-1.04;71.68
50484;BME280;36409;52.168;20.878;2023-02-04T13:08:00;101603.83;;;-1.10;71.40
50484;BME280;36409;52.168;20.878;2023-02-04T13:10:30;101615.69;;;-1.12;72.08
50484;BME280;36409;52.168;20.878;2023-02-04T13:13:00;101631.23;;;-1.09;72.12
50484;BME280;36409;52.168;20.878;2023-02-04T13:15:32;101623.72;;;-1.05;71.91
50484;BME280;36409;52.168;20.878;2023-02-04T13:18:02;101624.34;;;-1.10;71.71